Time;durP1;ratioP1;P1;durP2;ratioP2;P2;SDS_P1;SDS_P2;PMS_P1;PMS_P2;Temp;Humidity;BMP_temperature;BMP_pressure;BME280_temperature;BME280_humidity;BME280_pressure;Samples;Min_cycle;Max_cycle;Signal;HPM_P1;HPM_P2
2024/01/09 00:02:22;;;;;;;9.18;3.85;;;;;;;;;;5030218;28;20046;-88
2024/01/09 00:04:48;;;;;;;6.50;3.63;;;;;;;;;;5029689;28;20074;-90
2024/01/09 00:07:13;;;;;;;6.40;3.63;;;;;;;;;;5018372;28;20034;-89
2024/01/09 00:09:38;;;;;;;7.50;3.92;;;;;;;;;;5018629;28;20396;-89
2024/01/09 00:12:03;;;;;;;7.13;3.75;;;;;;;;;;5018568;28;20513;-90
2024/01/09 00:14:29;;;;;;;7.65;4.15;;;;;;;;;;5017862;28;20037;-89
2024/01/09 00:16:54;;;;;;;6.47;3.50;;;;;;;;;;5016279;28;20125;-90
2024/01/09 00:19:19;;;;;;;7.75;4.22;;;;;;;;;;5017712;28;20026;-90
2024/01/09 00:21:47;;;;;;;7.38;3.95;;;;;;;;;;5018306;28;20036;-90
2024/01/09 00:24:13;;;;;;;6.53;4.07;;;;;;;;;;5022863;28;20357;-90
2024/01/09 00:26:41;;;;;;;6.03;3.38;;;;;;;;;;5029453;28;20049;-89
2024/01/09 00:29:07;;;;;;;6.47;3.40;;;;;;;;;;5027407;28;20014;-90
2024/01/09 00:31:32;;;;;;;6.30;3.88;;;;;;;;;;5021369;28;20386;-89
2024/01/09 00:33:57;;;;;;;9.77;3.75;;;;;;;;;;5017514;28;20037;-85
2024/01/09 00:36:24;;;;;;;5.47;3.67;;;;;;;;;;5017834;28;20498;-90
2024/01/09 00:38:49;;;;;;;5.47;3.35;;;;;;;;;;5017540;28;20485;-91
2024/01/09 00:41:14;;;;;;;7.80;4.07;;;;;;;;;;5018331;28;20033;-89
2024/01/09 00:43:40;;;;;;;7.57;3.90;;;;;;;;;;5018039;28;20026;-89
2024/01/09 00:46:05;;;;;;;8.07;3.92;;;;;;;;;;5018265;28;20107;-91
2024/01/09 00:48:30;;;;;;;8.75;4.20;;;;;;;;;;5017482;28;20028;-90
2024/01/09 00:50:55;;;;;;;8.30;3.83;;;;;;;;;;5016556;28;20030;-90
2024/01/09 00:53:20;;;;;;;8.43;4.10;;;;;;;;;;5015990;28;20041;-89
2024/01/09 00:55:46;;;;;;;11.07;4.13;;;;;;;;;;5015413;28;20026;-91
2024/01/09 00:58:11;;;;;;;5.90;3.58;;;;;;;;;;5017739;28;20144;-91
2024/01/09 01:00:36;;;;;;;5.00;3.58;;;;;;;;;;5017211;28;20037;-90
2024/01/09 01:03:02;;;;;;;5.97;3.83;;;;;;;;;;5017784;28;20029;-90
2024/01/09 01:05:28;;;;;;;6.93;3.67;;;;;;;;;;5017478;28;20467;-90
2024/01/09 01:07:53;;;;;;;6.53;3.97;;;;;;;;;;5016929;28;20045;-89
2024/01/09 01:10:18;;;;;;;6.75;3.15;;;;;;;;;;5016929;28;20454;-89
2024/01/09 01:12:44;;;;;;;8.52;4.30;;;;;;;;;;5016666;28;20068;-90
2024/01/09 01:15:09;;;;;;;7.88;3.53;;;;;;;;;;5017547;28;20026;-90
2024/01/09 01:17:34;;;;;;;5.72;4.22;;;;;;;;;;5018352;28;20030;-90
2024/01/09 01:19:59;;;;;;;7.03;3.83;;;;;;;;;;5017458;28;20030;-90
2024/01/09 01:22:24;;;;;;;6.22;3.92;;;;;;;;;;5019413;28;20048;-90
2024/01/09 01:24:50;;;;;;;5.80;3.50;;;;;;;;;;5018221;28;20041;-91
2024/01/09 01:27:15;;;;;;;5.75;3.50;;;;;;;;;;5018079;28;20116;-90
2024/01/09 01:29:40;;;;;;;5.20;3.35;;;;;;;;;;5017436;28;20049;-90
2024/01/09 01:32:09;;;;;;;7.55;3.47;;;;;;;;;;5017182;28;20057;-89
2024/01/09 01:34:34;;;;;;;7.65;4.00;;;;;;;;;;5017631;28;20040;-90
2024/01/09 01:36:59;;;;;;;7.18;3.78;;;;;;;;;;5017186;28;20021;-89
2024/01/09 01:39:25;;;;;;;6.75;3.70;;;;;;;;;;4999556;28;20026;-91
2024/01/09 01:41:50;;;;;;;7.38;3.35;;;;;;;;;;5016680;28;20109;-91
2024/01/09 01:44:16;;;;;;;6.93;3.60;;;;;;;;;;5029660;28;20108;-89
2024/01/09 01:46:42;;;;;;;8.02;3.83;;;;;;;;;;5035330;28;20022;-88
2024/01/09 01:49:07;;;;;;;8.07;4.10;;;;;;;;;;5025105;28;20120;-90
2024/01/09 01:51:33;;;;;;;5.45;3.65;;;;;;;;;;5017353;28;20026;-89
2024/01/09 01:53:58;;;;;;;5.32;3.30;;;;;;;;;;5025357;28;20089;-89
2024/01/09 01:56:23;;;;;;;7.18;3.63;;;;;;;;;;5032861;28;20489;-90
2024/01/09 01:58:48;;;;;;;6.18;3.50;;;;;;;;;;5022976;28;20417;-91
2024/01/09 02:01:14;;;;;;;5.82;3.63;;;;;;;;;;5017919;28;20130;-90
2024/01/09 02:03:39;;;;;;;7.10;3.50;;;;;;;;;;5016065;28;20024;-91
2024/01/09 02:06:04;;;;;;;5.32;3.53;;;;;;;;;;5018362;28;20474;-90
2024/01/09 02:08:30;;;;;;;5.57;3.67;;;;;;;;;;5017518;28;20100;-90
2024/01/09 02:10:55;;;;;;;7.53;3.63;;;;;;;;;;5016129;28;20435;-89
2024/01/09 02:13:21;;;;;;;7.32;3.72;;;;;;;;;;5015956;28;20033;-90
2024/01/09 02:15:46;;;;;;;5.53;3.90;;;;;;;;;;5015729;28;20026;-90
2024/01/09 02:18:11;;;;;;;6.10;3.65;;;;;;;;;;5016842;28;20465;-90
2024/01/09 02:20:36;;;;;;;7.32;3.67;;;;;;;;;;5015879;28;20479;-89
2024/01/09 02:23:01;;;;;;;6.55;4.20;;;;;;;;;;5016766;28;20529;-90
2024/01/09 02:25:27;;;;;;;6.68;3.67;;;;;;;;;;5020188;28;20022;-90
2024/01/09 02:27:55;;;;;;;5.10;3.53;;;;;;;;;;5020146;28;20053;-89
2024/01/09 02:30:20;;;;;;;6.85;3.30;;;;;;;;;;5022625;28;20096;-88
2024/01/09 02:32:46;;;;;;;9.05;3.97;;;;;;;;;;5026114;28;20400;-89
2024/01/09 02:35:12;;;;;;;4.68;3.50;;;;;;;;;;5025390;28;20018;-89
2024/01/09 02:37:37;;;;;;;5.82;3.22;;;;;;;;;;5025382;28;20037;-80
2024/01/09 02:40:03;;;;;;;5.45;3.53;;;;;;;;;;5028918;28;20030;-90
2024/01/09 02:42:28;;;;;;;6.07;4.07;;;;;;;;;;5029989;28;20091;-88
2024/01/09 02:44:56;;;;;;;6.40;3.53;;;;;;;;;;5030575;28;20030;-89
2024/01/09 02:47:22;;;;;;;11.15;3.92;;;;;;;;;;5031264;28;20030;-90
2024/01/09 02:49:47;;;;;;;5.90;3.35;;;;;;;;;;5030652;28;20026;-88
2024/01/09 02:52:13;;;;;;;6.93;3.75;;;;;;;;;;5024708;28;20026;-90
2024/01/09 02:54:38;;;;;;;7.47;3.67;;;;;;;;;;5020743;28;20026;-91
2024/01/09 02:57:03;;;;;;;7.18;3.80;;;;;;;;;;5025917;28;20032;-91
2024/01/09 02:59:29;;;;;;;6.90;4.13;;;;;;;;;;5027071;28;20030;-91
2024/01/09 03:01:54;;;;;;;6.32;3.70;;;;;;;;;;5027021;28;20073;-88
2024/01/09 03:04:19;;;;;;;5.40;3.47;;;;;;;;;;5028319;28;20084;-89
2024/01/09 03:06:45;;;;;;;9.52;3.95;;;;;;;;;;5026873;28;20112;-88
2024/01/09 03:09:11;;;;;;;6.70;4.07;;;;;;;;;;5028751;28;20127;-92
2024/01/09 03:11:36;;;;;;;6.82;4.40;;;;;;;;;;5015505;28;20026;-92
2024/01/09 03:14:02;;;;;;;5.85;3.80;;;;;;;;;;5021678;28;20018;-90
2024/01/09 03:16:27;;;;;;;9.00;4.30;;;;;;;;;;5037402;28;20029;-89
2024/01/09 03:18:52;;;;;;;8.82;4.03;;;;;;;;;;5036674;28;20052;-88
2024/01/09 03:21:17;;;;;;;5.03;3.30;;;;;;;;;;5037784;28;20076;-90
2024/01/09 03:23:42;;;;;;;9.23;3.53;;;;;;;;;;5035872;28;20022;-89
2024/01/09 03:26:07;;;;;;;6.93;3.75;;;;;;;;;;5036228;28;20037;-90
2024/01/09 03:28:33;;;;;;;4.97;3.30;;;;;;;;;;5036564;28;20025;-90
2024/01/09 03:30:58;;;;;;;6.72;3.03;;;;;;;;;;5035088;28;20026;-89
2024/01/09 03:33:23;;;;;;;7.35;3.90;;;;;;;;;;5037055;28;20020;-89
2024/01/09 03:35:48;;;;;;;7.72;4.05;;;;;;;;;;5034618;28;20022;-87
2024/01/09 03:38:13;;;;;;;5.47;3.70;;;;;;;;;;5027663;28;20086;-89
2024/01/09 03:40:39;;;;;;;8.45;4.43;;;;;;;;;;5036874;28;20034;-89
2024/01/09 03:43:06;;;;;;;8.48;4.50;;;;;;;;;;5036685;28;20043;-85
2024/01/09 03:45:31;;;;;;;5.00;3.50;;;;;;;;;;5034866;28;20022;-89
2024/01/09 03:47:56;;;;;;;8.05;3.80;;;;;;;;;;5036135;28;20049;-91
2024/01/09 03:50:22;;;;;;;5.35;3.45;;;;;;;;;;5034298;28;20050;-83
2024/01/09 03:52:47;;;;;;;7.50;3.95;;;;;;;;;;5033887;28;20037;-91
2024/01/09 03:55:14;;;;;;;6.85;3.88;;;;;;;;;;5034959;28;20026;-90
2024/01/09 03:57:40;;;;;;;6.30;3.78;;;;;;;;;;5034510;28;20026;-90
2024/01/09 04:00:05;;;;;;;6.57;3.60;;;;;;;;;;5035335;28;20034;-91
2024/01/09 04:02:30;;;;;;;7.28;3.90;;;;;;;;;;5034592;28;20002;-91
2024/01/09 04:04:56;;;;;;;7.13;3.95;;;;;;;;;;5035378;28;20033;-89
2024/01/09 04:07:21;;;;;;;7.10;4.80;;;;;;;;;;5036198;28;20470;-90
2024/01/09 04:09:46;;;;;;;5.78;3.58;;;;;;;;;;5034228;28;20046;-91
2024/01/09 04:12:11;;;;;;;7.28;3.90;;;;;;;;;;5030932;28;20025;-91
2024/01/09 04:14:37;;;;;;;9.90;4.15;;;;;;;;;;5025471;28;20037;-90
2024/01/09 04:17:02;;;;;;;6.00;4.00;;;;;;;;;;5023563;28;20033;-88
2024/01/09 04:19:27;;;;;;;5.72;3.60;;;;;;;;;;5021747;28;20033;-90
2024/01/09 04:21:53;;;;;;;5.88;3.53;;;;;;;;;;5029890;28;20029;-87
2024/01/09 04:24:18;;;;;;;10.98;4.10;;;;;;;;;;5028981;28;20010;-90
2024/01/09 04:26:43;;;;;;;8.65;4.28;;;;;;;;;;5033835;28;20026;-89
2024/01/09 04:29:08;;;;;;;6.70;3.88;;;;;;;;;;5036822;28;20025;-82
2024/01/09 04:31:34;;;;;;;7.82;3.90;;;;;;;;;;5035792;28;20078;-86
2024/01/09 04:34:02;;;;;;;8.05;4.03;;;;;;;;;;5035281;28;20026;-85
2024/01/09 04:36:27;;;;;;;6.45;4.03;;;;;;;;;;5031605;28;20040;-92
2024/01/09 04:38:52;;;;;;;5.85;3.65;;;;;;;;;;5023877;28;20120;-91
2024/01/09 04:41:18;;;;;;;7.68;4.15;;;;;;;;;;5023784;28;20017;-90
2024/01/09 04:43:44;;;;;;;6.82;3.88;;;;;;;;;;5032158;28;20053;-90
2024/01/09 04:46:10;;;;;;;6.47;3.67;;;;;;;;;;5032113;28;20052;-91
2024/01/09 04:48:35;;;;;;;6.05;3.67;;;;;;;;;;5028642;28;20018;-90
2024/01/09 04:51:00;;;;;;;6.45;3.83;;;;;;;;;;5017655;28;20030;-91
2024/01/09 04:53:25;;;;;;;6.68;4.30;;;;;;;;;;5018072;28;20026;-90
2024/01/09 04:55:51;;;;;;;6.47;3.65;;;;;;;;;;5017384;28;20417;-89
2024/01/09 04:58:16;;;;;;;6.97;3.60;;;;;;;;;;5016488;28;20468;-90
2024/01/09 05:00:41;;;;;;;7.72;4.13;;;;;;;;;;5016987;28;20097;-90
2024/01/09 05:03:07;;;;;;;4.95;3.55;;;;;;;;;;5017283;28;20033;-90
2024/01/09 05:05:32;;;;;;;6.97;3.53;;;;;;;;;;5017121;28;20061;-90
2024/01/09 05:07:57;;;;;;;8.35;3.78;;;;;;;;;;5016469;28;20574;-91
2024/01/09 05:10:22;;;;;;;5.38;3.85;;;;;;;;;;5016305;28;20028;-91
2024/01/09 05:12:48;;;;;;;8.48;4.00;;;;;;;;;;5016237;28;20030;-91
2024/01/09 05:15:13;;;;;;;5.47;3.67;;;;;;;;;;5015098;28;20332;-91
2024/01/09 05:17:38;;;;;;;7.68;3.70;;;;;;;;;;5016387;28;20021;-92
2024/01/09 05:20:04;;;;;;;8.80;3.90;;;;;;;;;;5016809;28;20030;-90
2024/01/09 05:22:29;;;;;;;7.65;3.78;;;;;;;;;;5016774;28;20018;-91
2024/01/09 05:24:54;;;;;;;5.55;3.42;;;;;;;;;;5015766;28;20030;-90
2024/01/09 05:27:20;;;;;;;8.98;4.05;;;;;;;;;;5016882;28;20038;-91
2024/01/09 05:29:45;;;;;;;5.03;3.10;;;;;;;;;;5015676;28;20379;-91
2024/01/09 05:32:10;;;;;;;5.50;3.60;;;;;;;;;;5015820;28;20032;-91
2024/01/09 05:34:35;;;;;;;5.68;3.50;;;;;;;;;;5015457;28;20125;-91
2024/01/09 05:37:01;;;;;;;6.25;3.45;;;;;;;;;;5015805;28;20036;-89
2024/01/09 05:39:26;;;;;;;7.10;3.60;;;;;;;;;;5015965;28;20033;-90
2024/01/09 05:41:51;;;;;;;8.55;3.40;;;;;;;;;;5016078;28;20022;-92
2024/01/09 05:44:16;;;;;;;6.13;3.40;;;;;;;;;;5015794;28;20037;-92
2024/01/09 05:46:41;;;;;;;8.50;4.03;;;;;;;;;;5016422;28;20109;-91
2024/01/09 05:49:07;;;;;;;9.48;4.30;;;;;;;;;;5016141;28;20022;-91
2024/01/09 05:51:32;;;;;;;6.18;3.80;;;;;;;;;;5016665;28;20037;-92
2024/01/09 05:53:57;;;;;;;8.10;3.75;;;;;;;;;;5015348;28;20109;-89
2024/01/09 05:56:23;;;;;;;5.13;3.50;;;;;;;;;;5015748;28;20036;-93
2024/01/09 05:58:48;;;;;;;6.05;3.13;;;;;;;;;;5016847;28;20319;-92
2024/01/09 06:01:13;;;;;;;6.25;4.03;;;;;;;;;;5016517;28;20347;-92
2024/01/09 06:03:38;;;;;;;7.05;3.50;;;;;;;;;;5016524;28;20026;-91
2024/01/09 06:06:04;;;;;;;5.78;3.40;;;;;;;;;;5016136;28;20108;-92
2024/01/09 06:08:29;;;;;;;7.82;3.72;;;;;;;;;;5014940;28;20073;-91
2024/01/09 06:10:54;;;;;;;8.40;3.60;;;;;;;;;;5014645;28;20416;-92
2024/01/09 06:13:20;;;;;;;6.32;3.67;;;;;;;;;;5016347;28;20386;-91
2024/01/09 06:15:45;;;;;;;5.47;2.92;;;;;;;;;;5015656;28;20053;-92
2024/01/09 06:18:10;;;;;;;5.05;3.22;;;;;;;;;;5016428;28;20034;-92
2024/01/09 06:20:35;;;;;;;5.65;3.70;;;;;;;;;;5020272;28;20089;-91
2024/01/09 06:23:01;;;;;;;7.18;3.58;;;;;;;;;;5019827;28;20466;-92
2024/01/09 06:25:26;;;;;;;5.63;3.58;;;;;;;;;;5014661;28;20525;-93
2024/01/09 06:27:51;;;;;;;9.32;4.22;;;;;;;;;;5015807;28;20029;-93
2024/01/09 06:30:16;;;;;;;5.95;3.55;;;;;;;;;;5015914;28;20032;-93
2024/01/09 06:32:42;;;;;;;8.57;4.57;;;;;;;;;;5014955;28;20034;-89
2024/01/09 06:35:07;;;;;;;5.20;3.42;;;;;;;;;;5013913;28;20386;-91
2024/01/09 06:37:33;;;;;;;6.43;3.85;;;;;;;;;;5014536;28;20034;-86
2024/01/09 06:39:58;;;;;;;8.70;4.35;;;;;;;;;;5014012;28;20090;-90
2024/01/09 06:42:24;;;;;;;7.28;3.90;;;;;;;;;;5013839;28;20096;-90
2024/01/09 06:44:49;;;;;;;7.18;4.00;;;;;;;;;;5015057;28;20033;-86
2024/01/09 06:47:14;;;;;;;5.22;3.33;;;;;;;;;;5014782;28;20045;-86
2024/01/09 06:49:39;;;;;;;6.55;3.70;;;;;;;;;;5018822;28;20026;-83
2024/01/09 06:52:05;;;;;;;5.95;3.53;;;;;;;;;;5019363;28;20518;-88
2024/01/09 06:54:30;;;;;;;5.43;3.60;;;;;;;;;;5013700;28;20139;-85
2024/01/09 06:56:55;;;;;;;6.38;3.60;;;;;;;;;;5014377;28;20029;-83
2024/01/09 06:59:21;;;;;;;9.43;3.78;;;;;;;;;;5012808;28;20026;-87
2024/01/09 07:01:46;;;;;;;7.55;4.13;;;;;;;;;;5012745;28;20056;-82
2024/01/09 07:04:11;;;;;;;10.82;3.90;;;;;;;;;;5013682;28;20022;-82
2024/01/09 07:06:36;;;;;;;6.00;3.50;;;;;;;;;;5013109;28;20025;-81
2024/01/09 07:09:02;;;;;;;5.95;3.50;;;;;;;;;;5012751;28;20053;-82
2024/01/09 07:11:28;;;;;;;7.25;3.53;;;;;;;;;;5012795;28;20463;-83
2024/01/09 07:13:53;;;;;;;6.30;3.75;;;;;;;;;;5012708;28;20018;-80
2024/01/09 07:16:19;;;;;;;5.25;3.60;;;;;;;;;;5012027;28;20033;-81
2024/01/09 07:18:47;;;;;;;7.93;3.78;;;;;;;;;;5012663;28;20044;-82
2024/01/09 07:21:12;;;;;;;5.70;3.58;;;;;;;;;;5013086;28;20324;-82
2024/01/09 07:23:37;;;;;;;5.20;3.35;;;;;;;;;;5013485;28;20026;-83
2024/01/09 07:26:02;;;;;;;5.18;3.25;;;;;;;;;;5013301;28;20419;-82
2024/01/09 07:28:28;;;;;;;8.90;3.50;;;;;;;;;;5013640;28;20026;-83
2024/01/09 07:30:54;;;;;;;6.57;3.88;;;;;;;;;;5013882;28;20033;-83
2024/01/09 07:33:19;;;;;;;6.00;3.65;;;;;;;;;;5013365;28;20022;-82
2024/01/09 07:35:45;;;;;;;9.18;3.67;;;;;;;;;;5013667;28;20042;-81
2024/01/09 07:38:10;;;;;;;6.75;3.20;;;;;;;;;;5013280;28;20081;-82
2024/01/09 07:40:35;;;;;;;8.40;3.72;;;;;;;;;;5013245;28;20084;-82
2024/01/09 07:43:00;;;;;;;5.35;3.05;;;;;;;;;;5013598;28;20022;-81
2024/01/09 07:45:29;;;;;;;5.63;3.75;;;;;;;;;;5014045;28;20404;-82
2024/01/09 07:47:57;;;;;;;6.03;3.55;;;;;;;;;;5011476;28;20022;-81
2024/01/09 07:50:23;;;;;;;7.55;4.10;;;;;;;;;;5012899;28;20105;-81
2024/01/09 07:52:48;;;;;;;6.43;3.83;;;;;;;;;;5012817;28;20469;-81
2024/01/09 07:55:13;;;;;;;8.90;4.22;;;;;;;;;;5012906;28;20026;-83
2024/01/09 07:57:38;;;;;;;6.72;3.50;;;;;;;;;;5010868;28;20034;-83
2024/01/09 08:00:04;;;;;;;7.28;3.50;;;;;;;;;;5012639;28;20026;-81
2024/01/09 08:02:29;;;;;;;5.35;3.35;;;;;;;;;;5016678;28;20413;-83
2024/01/09 08:04:55;;;;;;;8.48;3.28;;;;;;;;;;5016657;28;20030;-85
2024/01/09 08:07:20;;;;;;;6.22;3.13;;;;;;;;;;5014827;28;20050;-82
2024/01/09 08:09:45;;;;;;;6.05;3.70;;;;;;;;;;5016716;28;20088;-82
2024/01/09 08:12:10;;;;;;;7.13;3.15;;;;;;;;;;5017623;28;20116;-83
2024/01/09 08:14:35;;;;;;;5.70;3.90;;;;;;;;;;5018116;28;20378;-81
2024/01/09 08:17:01;;;;;;;6.55;3.30;;;;;;;;;;5018196;28;20034;-83
2024/01/09 08:19:26;;;;;;;6.97;3.10;;;;;;;;;;5019110;28;20058;-83
2024/01/09 08:21:51;;;;;;;5.55;3.63;;;;;;;;;;5019471;28;20034;-83
2024/01/09 08:24:18;;;;;;;9.32;3.30;;;;;;;;;;5023010;28;20026;-84
2024/01/09 08:26:47;;;;;;;4.95;2.90;;;;;;;;;;5023355;28;20029;-82
2024/01/09 08:29:12;;;;;;;6.60;3.45;;;;;;;;;;5018718;28;20159;-81
2024/01/09 08:31:42;;;;;;;7.57;3.60;;;;;;;;;;5021512;28;20041;-82
2024/01/09 08:34:07;;;;;;;6.80;3.55;;;;;;;;;;5019711;28;20080;-80
2024/01/09 08:36:32;;;;;;;7.45;3.85;;;;;;;;;;5016190;28;20449;-80
2024/01/09 08:38:57;;;;;;;5.65;3.22;;;;;;;;;;5014600;28;20520;-80
2024/01/09 08:41:23;;;;;;;8.95;3.60;;;;;;;;;;5015983;28;20037;-82
2024/01/09 08:43:48;;;;;;;5.85;3.00;;;;;;;;;;5014756;28;20026;-81
2024/01/09 08:46:13;;;;;;;5.00;3.40;;;;;;;;;;5015728;28;20391;-79
2024/01/09 08:48:38;;;;;;;5.32;3.30;;;;;;;;;;5016089;28;20079;-80
2024/01/09 08:51:04;;;;;;;5.78;3.35;;;;;;;;;;5015675;28;20433;-81
2024/01/09 08:53:29;;;;;;;4.68;3.35;;;;;;;;;;5015528;28;20025;-76
2024/01/09 08:55:55;;;;;;;6.70;3.10;;;;;;;;;;5014202;28;20033;-80
2024/01/09 08:58:20;;;;;;;4.63;2.72;;;;;;;;;;5015491;28;20022;-79
2024/01/09 09:00:45;;;;;;;4.47;3.03;;;;;;;;;;5015232;28;20018;-79
2024/01/09 09:03:10;;;;;;;7.65;4.57;;;;;;;;;;5015131;28;20438;-81
2024/01/09 09:05:36;;;;;;;7.57;4.65;;;;;;;;;;5015200;28;20466;-79
2024/01/09 09:08:01;;;;;;;7.30;3.78;;;;;;;;;;5015734;28;20069;-82
2024/01/09 09:10:26;;;;;;;6.15;3.25;;;;;;;;;;5015989;28;20030;-81
2024/01/09 09:12:51;;;;;;;6.90;3.38;;;;;;;;;;5014207;28;20022;-82
2024/01/09 09:15:17;;;;;;;6.88;3.13;;;;;;;;;;5016034;28;20096;-85
2024/01/09 09:17:42;;;;;;;5.95;3.25;;;;;;;;;;5015846;28;20108;-85
2024/01/09 09:20:07;;;;;;;4.10;2.88;;;;;;;;;;5016200;28;20101;-83
2024/01/09 09:22:33;;;;;;;6.97;2.92;;;;;;;;;;5016532;28;20038;-82
2024/01/09 09:24:59;;;;;;;9.85;2.95;;;;;;;;;;5015659;28;20021;-84
2024/01/09 09:27:24;;;;;;;4.72;3.20;;;;;;;;;;5015664;28;20022;-83
2024/01/09 09:29:49;;;;;;;4.75;3.22;;;;;;;;;;5015720;28;20049;-83
2024/01/09 09:32:14;;;;;;;6.80;2.72;;;;;;;;;;5016278;28;20034;-83
2024/01/09 09:34:40;;;;;;;3.90;2.90;;;;;;;;;;5015486;28;20072;-83
2024/01/09 09:37:06;;;;;;;5.32;3.20;;;;;;;;;;5015362;28;20018;-82
2024/01/09 09:39:31;;;;;;;7.20;3.40;;;;;;;;;;5015696;28;20065;-84
2024/01/09 09:41:57;;;;;;;4.47;2.70;;;;;;;;;;5017053;28;20033;-82
2024/01/09 09:44:24;;;;;;;6.05;2.90;;;;;;;;;;5026360;28;20025;-84
2024/01/09 09:46:51;;;;;;;6.85;3.15;;;;;;;;;;5029816;28;20026;-83
2024/01/09 09:49:17;;;;;;;5.47;2.65;;;;;;;;;;5027784;28;20033;-89
2024/01/09 09:51:43;;;;;;;5.75;3.20;;;;;;;;;;5016239;28;20529;-82
2024/01/09 09:54:10;;;;;;;5.90;3.20;;;;;;;;;;5016886;28;20060;-85
2024/01/09 09:56:35;;;;;;;5.78;2.97;;;;;;;;;;5015352;28;20033;-84
2024/01/09 09:59:01;;;;;;;4.65;2.90;;;;;;;;;;5013825;28;20026;-83
2024/01/09 10:01:28;;;;;;;10.55;3.70;;;;;;;;;;5014337;28;20025;-83
2024/01/09 10:03:55;;;;;;;4.90;3.00;;;;;;;;;;5013884;28;20481;-82
2024/01/09 10:06:21;;;;;;;7.28;3.67;;;;;;;;;;5015371;28;20064;-85
2024/01/09 10:08:47;;;;;;;6.00;3.53;;;;;;;;;;5017131;28;20057;-84
2024/01/09 10:11:13;;;;;;;4.60;2.90;;;;;;;;;;5015452;28;20504;-83
2024/01/09 10:13:39;;;;;;;4.72;3.00;;;;;;;;;;5014632;28;20033;-84
2024/01/09 10:16:04;;;;;;;6.20;2.95;;;;;;;;;;5014331;28;20028;-84
2024/01/09 10:18:30;;;;;;;6.10;3.20;;;;;;;;;;5014344;28;20171;-85
2024/01/09 10:20:56;;;;;;;5.60;2.80;;;;;;;;;;5023537;28;20033;-84
2024/01/09 10:23:21;;;;;;;5.70;3.00;;;;;;;;;;5023220;28;20017;-85
2024/01/09 10:25:47;;;;;;;3.72;2.42;;;;;;;;;;5015732;28;20026;-83
2024/01/09 10:28:16;;;;;;;4.45;2.70;;;;;;;;;;5014672;28;20022;-82
2024/01/09 10:30:42;;;;;;;4.18;2.80;;;;;;;;;;5014082;28;20076;-82
2024/01/09 10:33:13;;;;;;;4.78;3.00;;;;;;;;;;5013714;28;20430;-83
2024/01/09 10:35:39;;;;;;;4.88;2.85;;;;;;;;;;5013870;28;20034;-82
2024/01/09 10:38:04;;;;;;;4.05;2.67;;;;;;;;;;5014017;28;20046;-82
2024/01/09 10:40:29;;;;;;;4.40;2.63;;;;;;;;;;5013418;28;20037;-83
2024/01/09 10:42:54;;;;;;;3.63;2.50;;;;;;;;;;5013419;28;20022;-82
2024/01/09 10:45:24;;;;;;;3.50;2.40;;;;;;;;;;5013544;28;20101;-81
2024/01/09 10:47:53;;;;;;;4.43;2.65;;;;;;;;;;5013620;28;20022;-82
2024/01/09 10:50:19;;;;;;;3.67;2.45;;;;;;;;;;5013036;28;20474;-82
2024/01/09 10:52:46;;;;;;;3.58;2.55;;;;;;;;;;5013443;28;20100;-82
2024/01/09 10:55:12;;;;;;;4.18;2.78;;;;;;;;;;5013127;28;20022;-81
2024/01/09 10:57:37;;;;;;;5.88;2.97;;;;;;;;;;5013242;28;20533;-81
2024/01/09 11:00:08;;;;;;;5.97;3.00;;;;;;;;;;5013160;28;20061;-80
2024/01/09 11:02:36;;;;;;;4.38;2.72;;;;;;;;;;5012957;28;20018;-81
2024/01/09 11:05:01;;;;;;;5.82;2.90;;;;;;;;;;5013278;28;20057;-80
2024/01/09 11:07:26;;;;;;;4.10;2.38;;;;;;;;;;5013909;28;20045;-79
2024/01/09 11:09:53;;;;;;;3.83;2.67;;;;;;;;;;5013027;28;20029;-80
2024/01/09 11:12:20;;;;;;;3.78;2.58;;;;;;;;;;5012917;28;20033;-78
2024/01/09 11:14:48;;;;;;;4.53;2.80;;;;;;;;;;5012539;28;20030;-79
2024/01/09 11:17:14;;;;;;;3.78;2.53;;;;;;;;;;5012885;28;20087;-78
2024/01/09 11:19:40;;;;;;;4.43;2.60;;;;;;;;;;5012461;28;20041;-78
2024/01/09 11:22:18;;;;;;;4.00;2.55;;;;;;;;;;5011456;28;20030;-83
2024/01/09 11:24:50;;;;;;;3.95;2.45;;;;;;;;;;5012884;28;20025;-79
2024/01/09 11:27:17;;;;;;;5.22;2.60;;;;;;;;;;5012891;28;20029;-78
2024/01/09 11:29:49;;;;;;;4.85;2.55;;;;;;;;;;5012006;28;20512;-78
2024/01/09 11:32:15;;;;;;;3.72;2.47;;;;;;;;;;5012647;28;20459;-78
2024/01/09 11:34:42;;;;;;;3.25;2.17;;;;;;;;;;5013794;28;20496;-79
2024/01/09 11:37:11;;;;;;;4.55;2.30;;;;;;;;;;5016447;28;20026;-79
2024/01/09 11:39:38;;;;;;;4.30;2.60;;;;;;;;;;5016186;28;20026;-80
2024/01/09 11:42:03;;;;;;;3.28;2.10;;;;;;;;;;5017054;28;20018;-80
2024/01/09 11:44:28;;;;;;;3.72;2.65;;;;;;;;;;5016525;28;20032;-80
2024/01/09 11:46:53;;;;;;;4.57;2.60;;;;;;;;;;5016329;28;20037;-76
2024/01/09 11:49:19;;;;;;;3.88;2.35;;;;;;;;;;5016034;28;20056;-80
2024/01/09 11:51:44;;;;;;;3.97;2.50;;;;;;;;;;5015995;28;20030;-80
2024/01/09 11:54:11;;;;;;;5.03;2.60;;;;;;;;;;5016132;28;20108;-80
2024/01/09 11:56:36;;;;;;;4.55;2.50;;;;;;;;;;5016212;28;20144;-81
2024/01/09 11:59:02;;;;;;;4.78;2.50;;;;;;;;;;5016182;28;20113;-81
2024/01/09 12:01:27;;;;;;;3.58;2.40;;;;;;;;;;5016294;28;20018;-80
2024/01/09 12:03:53;;;;;;;2.33;1.92;;;;;;;;;;5016708;28;20022;-80
2024/01/09 12:06:18;;;;;;;4.93;2.55;;;;;;;;;;5015644;28;20070;-80
2024/01/09 12:08:43;;;;;;;4.10;2.30;;;;;;;;;;5015215;28;20053;-80
2024/01/09 12:11:08;;;;;;;4.00;2.33;;;;;;;;;;5016395;28;20026;-79
2024/01/09 12:13:34;;;;;;;3.38;2.25;;;;;;;;;;5015570;28;20032;-80
2024/01/09 12:15:59;;;;;;;3.25;2.15;;;;;;;;;;5015877;28;20033;-79
2024/01/09 12:18:25;;;;;;;3.83;2.40;;;;;;;;;;5016037;28;20029;-78
2024/01/09 12:20:50;;;;;;;3.22;2.45;;;;;;;;;;5015940;28;20041;-77
2024/01/09 12:23:15;;;;;;;5.40;2.50;;;;;;;;;;5014756;28;20018;-77
2024/01/09 12:25:44;;;;;;;4.85;2.75;;;;;;;;;;5015908;28;20382;-77
2024/01/09 12:28:09;;;;;;;4.55;2.58;;;;;;;;;;5015927;28;20116;-79
2024/01/09 12:30:34;;;;;;;3.22;2.13;;;;;;;;;;5015825;28;20118;-78
2024/01/09 12:33:00;;;;;;;6.18;2.60;;;;;;;;;;5015081;28;20026;-74
2024/01/09 12:35:25;;;;;;;3.42;2.45;;;;;;;;;;5014151;28;20044;-79
2024/01/09 12:37:50;;;;;;;3.67;2.25;;;;;;;;;;5015406;28;20141;-79
2024/01/09 12:40:16;;;;;;;4.35;2.50;;;;;;;;;;5015371;28;20030;-79
2024/01/09 12:42:41;;;;;;;4.25;2.72;;;;;;;;;;5015310;28;20029;-79
2024/01/09 12:45:08;;;;;;;3.03;2.40;;;;;;;;;;5015244;28;20028;-79
2024/01/09 12:47:33;;;;;;;3.88;2.40;;;;;;;;;;5014262;28;20433;-80
2024/01/09 12:49:59;;;;;;;4.43;2.58;;;;;;;;;;5015331;28;20030;-80
2024/01/09 12:52:24;;;;;;;7.93;2.42;;;;;;;;;;5015215;28;20018;-80
2024/01/09 12:54:49;;;;;;;4.10;2.20;;;;;;;;;;5015163;28;20018;-80
2024/01/09 12:57:14;;;;;;;4.50;2.72;;;;;;;;;;5014918;28;20022;-79
2024/01/09 12:59:40;;;;;;;4.00;2.47;;;;;;;;;;5015078;28;20072;-78
2024/01/09 13:02:05;;;;;;;9.75;2.70;;;;;;;;;;5015132;28;20061;-80
2024/01/09 13:04:31;;;;;;;3.95;2.30;;;;;;;;;;5014517;28;20033;-79
2024/01/09 13:06:57;;;;;;;3.70;2.30;;;;;;;;;;5013815;28;20034;-80
2024/01/09 13:09:24;;;;;;;4.78;2.58;;;;;;;;;;5015523;28;20057;-79
2024/01/09 13:11:50;;;;;;;5.00;3.10;;;;;;;;;;5014058;28;20169;-79
2024/01/09 13:14:15;;;;;;;3.97;2.58;;;;;;;;;;5014025;28;20096;-82
2024/01/09 13:16:41;;;;;;;3.97;2.65;;;;;;;;;;5014817;28;20038;-80
2024/01/09 13:19:06;;;;;;;3.17;2.50;;;;;;;;;;5014963;28;20018;-78
2024/01/09 13:21:31;;;;;;;7.68;2.50;;;;;;;;;;5015177;28;20080;-79
2024/01/09 13:23:57;;;;;;;2.85;2.10;;;;;;;;;;5014546;28;20079;-80
2024/01/09 13:26:22;;;;;;;3.50;2.38;;;;;;;;;;5015325;28;20057;-80
2024/01/09 13:28:48;;;;;;;4.00;2.55;;;;;;;;;;5014652;28;20048;-80
2024/01/09 13:31:13;;;;;;;3.35;2.40;;;;;;;;;;5014710;28;20022;-80
2024/01/09 13:33:38;;;;;;;4.60;2.42;;;;;;;;;;5014729;28;20355;-79
2024/01/09 13:36:05;;;;;;;4.97;2.42;;;;;;;;;;5014116;28;20018;-79
2024/01/09 13:38:30;;;;;;;5.95;2.13;;;;;;;;;;5013618;28;20033;-78
2024/01/09 13:40:56;;;;;;;5.85;2.67;;;;;;;;;;5014255;28;20486;-79
2024/01/09 13:43:21;;;;;;;3.53;2.40;;;;;;;;;;5014628;28;20072;-79
2024/01/09 13:45:46;;;;;;;4.68;2.60;;;;;;;;;;5013379;28;20141;-78
2024/01/09 13:48:12;;;;;;;4.25;2.42;;;;;;;;;;5013399;28;20028;-78
2024/01/09 13:50:37;;;;;;;6.28;2.03;;;;;;;;;;5013795;28;20014;-78
2024/01/09 13:53:03;;;;;;;3.03;2.00;;;;;;;;;;5013400;28;20029;-79
2024/01/09 13:55:28;;;;;;;4.55;2.15;;;;;;;;;;5013312;28;20022;-78
2024/01/09 13:57:54;;;;;;;4.78;2.70;;;;;;;;;;5013186;28;20034;-78
2024/01/09 14:00:19;;;;;;;7.65;3.33;;;;;;;;;;5013352;28;20022;-80
2024/01/09 14:02:44;;;;;;;4.78;2.40;;;;;;;;;;5013242;28;20026;-80
2024/01/09 14:05:10;;;;;;;6.15;2.25;;;;;;;;;;5013035;28;20076;-79
2024/01/09 14:07:38;;;;;;;4.25;2.38;;;;;;;;;;5012449;28;20046;-78
2024/01/09 14:10:04;;;;;;;2.92;1.90;;;;;;;;;;5013059;28;20045;-78
2024/01/09 14:12:31;;;;;;;5.43;2.70;;;;;;;;;;5013074;28;20034;-79
2024/01/09 14:14:57;;;;;;;3.88;2.42;;;;;;;;;;5013627;28;20056;-79
2024/01/09 14:17:22;;;;;;;3.53;2.53;;;;;;;;;;5011756;28;20473;-79
2024/01/09 14:19:48;;;;;;;3.58;2.00;;;;;;;;;;5012911;28;20030;-79
2024/01/09 14:22:13;;;;;;;3.55;2.10;;;;;;;;;;5013134;28;20029;-79
2024/01/09 14:24:39;;;;;;;3.28;2.20;;;;;;;;;;5012500;28;20033;-79
2024/01/09 14:27:04;;;;;;;3.92;2.55;;;;;;;;;;5012219;28;20038;-81
2024/01/09 14:29:29;;;;;;;4.97;2.50;;;;;;;;;;5011439;28;20025;-81
2024/01/09 14:31:55;;;;;;;4.38;2.50;;;;;;;;;;5011430;28;20037;-78
2024/01/09 14:34:20;;;;;;;3.50;2.28;;;;;;;;;;5011196;28;20025;-77